Rocky Mountain Metropolitan Airport
KBJC : now visible

Airfield :











YOU CAN JOIN US ON...

 
LOGIN :

Register | Disclaimer

   EN    FR    IT 

 









Legend :    VFR   Marginal VFR   IFR   Intensive IFR   Very Intensive IFR
Visi :
Ceiling :
>= 8 km
>= 3000ft
5 to 8 km
1000 to 3000 ft
1500m to 5 km
500 to 1000 ft
800 to 1500m
200 to 500 ft
< 800m
< 200 ft
Symbols :   Thunderstorms  Fog  Heavy snow  Heavy precipitations  Wind > 20 kt






- Airport Elevation : 5673 ft


KBJC - Rocky Mountain Metropolitan

CURRENT METAR :
  • 141952Z 07008KT 10SM FEW090 31/00 A3019

EXPIRED METARs :
  • 141859Z 01008KT 10SM SKC 30/01 A3021
  • 141745Z 05010KT 6SM FU SKC 29/M01 A3023

TAF KBJC
Valid from the 14 at 18:00 until the 15 at 18:00 UTC


141736Z 1418/1518 06008G18KT P6SM FEW220
FM142000 10009KT P6SM FEW140 SCT220
FM150200 13010KT P6SM FEW140 SCT220
FM150600 30006KT P6SM SKC
FM151500 VRB05KT P6SM SKC
KZDV FIR / North America



MET'MAP, your aeronautical weather chart ! - Copyright ORBIFLY December 2007 - Disclaimer

ORBIFLY MET'MAP TEAM :

Programming & Development : Alexandra Zaïnal
Concept & original design : Baudouin d'Aumeries
Assistance for programming : Marc-Olivier Méhu
Technical & hardware support : Manuel Goepfert

Contact : metmap@orbifly.com




SOURCES & CREDITS :

   NOAA       Earth
Advisory